createdAt,value
2023-01-02T00:00:33.929Z,11.60
2023-01-02T00:03:37.058Z,11.60
2023-01-02T00:06:40.843Z,11.70
2023-01-02T00:09:43.810Z,11.70
2023-01-02T00:12:48.138Z,11.70
2023-01-02T00:15:51.188Z,11.60
2023-01-02T00:18:54.177Z,11.50
2023-01-02T00:21:57.172Z,11.50
2023-01-02T00:25:00.429Z,11.50
2023-01-02T00:28:05.258Z,11.40
2023-01-02T00:31:10.333Z,11.30
2023-01-02T00:34:13.397Z,11.40
2023-01-02T00:37:16.668Z,11.40
2023-01-02T00:40:19.639Z,11.40
2023-01-02T00:43:24.189Z,11.40
2023-01-02T00:46:27.313Z,11.40
2023-01-02T00:49:30.466Z,11.40
2023-01-02T00:52:33.471Z,11.40
2023-01-02T00:55:36.451Z,11.50
2023-01-02T00:58:40.855Z,11.40
2023-01-02T01:01:44.022Z,11.30
2023-01-02T01:04:47.110Z,11.20
2023-01-02T01:07:50.106Z,11.20
2023-01-02T01:10:53.093Z,11.20
2023-01-02T01:13:57.504Z,11.20
2023-01-02T01:17:00.629Z,11.30
2023-01-02T01:20:03.688Z,11.20
2023-01-02T01:23:06.769Z,11.20
2023-01-02T01:26:11.982Z,11.20
2023-01-02T01:29:16.297Z,11.20
2023-01-02T01:32:19.353Z,11.20
2023-01-02T01:35:22.328Z,11.20
2023-01-02T01:38:25.316Z,11.20
2023-01-02T01:41:28.283Z,11.20
2023-01-02T01:44:48.203Z,11.10
2023-01-02T01:47:54.592Z,11.10
2023-01-02T01:50:57.760Z,11.20
2023-01-02T01:54:06.472Z,11.20
2023-01-02T01:57:16.818Z,11.20
2023-01-02T02:00:21.531Z,11.20
2023-01-02T02:03:27.827Z,11.30
2023-01-02T02:06:31.347Z,11.30
2023-01-02T02:09:39.911Z,11.20
2023-01-02T02:12:42.882Z,11.20
2023-01-02T02:15:58.775Z,11.30
2023-01-02T02:19:46.481Z,11.30
2023-01-02T02:23:14.227Z,11.30
2023-01-02T02:26:50.801Z,11.20
2023-01-02T02:30:09.214Z,11.20
2023-01-02T02:33:35.624Z,11.30
2023-01-02T02:36:43.792Z,11.30
2023-01-02T02:39:57.732Z,11.30
2023-01-02T02:43:09.529Z,11.30
2023-01-02T02:46:25.213Z,11.30
2023-01-02T02:49:43.695Z,11.20
2023-01-02T02:52:50.899Z,11.20
2023-01-02T02:55:56.904Z,11.20
2023-01-02T02:59:00.335Z,11.20
2023-01-02T03:02:05.429Z,11.20
2023-01-02T03:05:13.110Z,11.30
2023-01-02T03:08:26.902Z,11.20
2023-01-02T03:11:42.449Z,11.20
2023-01-02T03:14:59.410Z,11.20
2023-01-02T03:18:19.510Z,11.20
2023-01-02T03:21:31.535Z,11.20
2023-01-02T03:24:36.091Z,11.30
2023-01-02T03:27:42.784Z,11.30
2023-01-02T03:30:48.740Z,11.30
2023-01-02T03:33:56.624Z,11.40
2023-01-02T03:37:04.701Z,11.50
2023-01-02T03:40:12.454Z,11.60
2023-01-02T03:43:19.388Z,11.60
2023-01-02T03:46:31.349Z,11.70
2023-01-02T03:49:42.215Z,11.70
2023-01-02T03:52:46.674Z,11.70
2023-01-02T03:56:04.000Z,11.70
2023-01-02T03:59:14.179Z,11.70
2023-01-02T04:02:27.436Z,11.70
2023-01-02T04:05:37.906Z,11.70
2023-01-02T04:08:45.329Z,11.80
2023-01-02T04:11:53.040Z,11.80
2023-01-02T04:15:00.388Z,11.90
2023-01-02T04:18:09.842Z,12.00
2023-01-02T04:21:18.016Z,12.10
2023-01-02T04:24:27.761Z,12.20
2023-01-02T04:27:36.000Z,12.40
2023-01-02T04:30:43.671Z,12.60
2023-01-02T04:33:50.202Z,12.70
2023-01-02T04:36:54.493Z,12.80
2023-01-02T04:39:59.534Z,12.90
2023-01-02T04:43:02.514Z,12.90
2023-01-02T04:46:06.012Z,13.00
2023-01-02T04:49:09.896Z,13.00
2023-01-02T04:52:14.243Z,13.00
2023-01-02T04:55:17.300Z,13.10
2023-01-02T04:58:20.300Z,13.10
2023-01-02T05:01:23.634Z,13.10
2023-01-02T05:04:26.776Z,13.10
2023-01-02T05:07:31.091Z,13.10
2023-01-02T05:10:34.057Z,13.10
2023-01-02T05:13:37.121Z,13.10
2023-01-02T05:16:40.102Z,13.10
2023-01-02T05:19:43.060Z,13.10
2023-01-02T05:23:04.981Z,13.10
2023-01-02T05:26:11.895Z,13.10
2023-01-02T05:29:14.922Z,13.00
2023-01-02T05:32:17.916Z,13.00
2023-01-02T05:35:22.199Z,13.00
2023-01-02T05:38:31.268Z,12.90
2023-01-02T05:41:34.997Z,12.90
2023-01-02T05:44:37.983Z,12.90
2023-01-02T05:47:40.972Z,12.90
2023-01-02T05:50:43.973Z,12.80
2023-01-02T05:53:48.422Z,12.80
2023-01-02T05:56:51.408Z,12.70
2023-01-02T05:59:54.391Z,12.70
2023-01-02T06:02:57.783Z,12.70
2023-01-02T06:06:04.896Z,12.70
2023-01-02T06:09:13.068Z,12.70
2023-01-02T06:12:16.051Z,12.80
2023-01-02T06:15:19.012Z,12.80
2023-01-02T06:18:22.017Z,12.80
2023-01-02T06:21:25.025Z,12.80
2023-01-02T06:24:30.214Z,12.80
2023-01-02T06:27:33.335Z,12.90
2023-01-02T06:30:36.338Z,12.90
2023-01-02T06:33:39.700Z,12.90
2023-01-02T06:36:42.662Z,12.80
2023-01-02T06:39:46.988Z,12.70
2023-01-02T06:42:49.941Z,12.70
2023-01-02T06:45:53.478Z,12.70
2023-01-02T06:48:56.486Z,12.60
2023-01-02T06:51:59.449Z,12.60
2023-01-02T06:55:03.880Z,12.60
2023-01-02T06:58:12.229Z,12.50
2023-01-02T07:01:18.592Z,12.50
2023-01-02T07:04:21.676Z,12.50
2023-01-02T07:07:24.662Z,12.50
2023-01-02T07:10:29.067Z,12.50
2023-01-02T07:13:32.076Z,12.50
2023-01-02T07:16:35.735Z,12.50
2023-01-02T07:19:39.058Z,12.50
2023-01-02T07:22:42.219Z,12.50
2023-01-02T07:25:46.540Z,12.40
2023-01-02T07:28:49.521Z,12.50
2023-01-02T07:31:52.565Z,12.50
2023-01-02T07:34:55.586Z,12.50
2023-01-02T07:37:58.553Z,12.50
2023-01-02T07:41:02.891Z,12.50
2023-01-02T07:44:06.163Z,12.50
2023-01-02T07:47:09.131Z,12.50
2023-01-02T07:50:12.150Z,12.50
2023-01-02T07:53:15.201Z,12.50
2023-01-02T07:56:19.506Z,12.60
2023-01-02T07:59:22.683Z,12.60
2023-01-02T08:02:25.729Z,12.60
2023-01-02T08:05:28.765Z,12.70
2023-01-02T08:08:31.828Z,12.70
2023-01-02T08:11:37.319Z,12.70
2023-01-02T08:14:40.285Z,12.80
2023-01-02T08:17:43.248Z,12.90
2023-01-02T08:20:46.249Z,12.90
2023-01-02T08:23:49.433Z,13.00
2023-01-02T08:26:53.772Z,13.00
2023-01-02T08:29:56.765Z,13.00
2023-01-02T08:33:00.917Z,13.10
2023-01-02T08:36:03.956Z,13.10
2023-01-02T08:39:06.997Z,13.20
2023-01-02T08:42:11.391Z,13.20
2023-01-02T08:45:14.480Z,13.20
2023-01-02T08:48:20.408Z,13.20
2023-01-02T08:51:24.587Z,13.20
2023-01-02T08:54:27.621Z,13.20
2023-01-02T08:57:31.975Z,13.20
2023-01-02T09:00:34.963Z,13.30
2023-01-02T09:03:38.023Z,13.40
2023-01-02T09:06:41.528Z,13.30
2023-01-02T09:09:44.682Z,13.40
2023-01-02T09:12:49.082Z,13.40
2023-01-02T09:15:52.264Z,13.40
2023-01-02T09:18:57.515Z,13.40
2023-01-02T09:22:01.353Z,13.40
2023-01-02T09:25:04.795Z,13.50
2023-01-02T09:28:09.098Z,13.50
2023-01-02T09:31:13.952Z,13.60
2023-01-02T09:34:17.172Z,13.60
2023-01-02T09:37:20.152Z,13.70
2023-01-02T09:40:23.531Z,13.60
2023-01-02T09:43:35.239Z,13.70
2023-01-02T09:46:44.798Z,13.70
2023-01-02T09:49:50.174Z,13.70
2023-01-02T09:52:56.679Z,13.80
2023-01-02T09:56:08.125Z,13.80
2023-01-02T09:59:17.547Z,13.80
2023-01-02T10:02:34.079Z,13.90
2023-01-02T10:06:03.521Z,13.90
2023-01-02T10:09:13.598Z,14.00
2023-01-02T10:12:22.722Z,14.00
2023-01-02T10:15:30.166Z,14.10
2023-01-02T10:18:37.441Z,14.10
2023-01-02T10:21:41.869Z,14.10
2023-01-02T10:24:51.349Z,14.10
2023-01-02T10:27:58.716Z,14.10
2023-01-02T10:31:08.041Z,14.10
2023-01-02T10:34:16.407Z,14.10
2023-01-02T10:37:19.409Z,14.10
2023-01-02T10:40:22.403Z,14.10
2023-01-02T10:43:25.412Z,14.10
2023-01-02T10:46:34.929Z,14.10
2023-01-02T10:49:39.585Z,14.00
2023-01-02T10:52:48.456Z,14.00
2023-01-02T10:55:51.435Z,14.00
2023-01-02T10:58:54.424Z,13.90
2023-01-02T11:02:00.781Z,13.80
2023-01-02T11:05:05.070Z,13.70
2023-01-02T11:08:13.788Z,13.60
2023-01-02T11:11:18.745Z,13.50
2023-01-02T11:14:29.228Z,13.50
2023-01-02T11:17:43.478Z,13.40
2023-01-02T11:20:50.561Z,13.40
2023-01-02T11:24:00.435Z,13.40
2023-01-02T11:27:04.157Z,13.30
2023-01-02T11:30:09.527Z,13.20
2023-01-02T11:33:27.010Z,13.10
2023-01-02T11:36:30.539Z,13.00
2023-01-02T11:39:35.440Z,12.90
2023-01-02T11:43:02.364Z,12.80
2023-01-02T11:46:10.152Z,12.60
2023-01-02T11:49:17.017Z,12.30
2023-01-02T11:52:24.971Z,12.10
2023-01-02T11:55:38.616Z,11.90
2023-01-02T11:58:49.787Z,11.90
2023-01-02T12:02:01.698Z,11.80
2023-01-02T12:05:12.017Z,11.60
2023-01-02T12:08:27.951Z,11.50
2023-01-02T12:11:42.938Z,11.50
2023-01-02T12:15:00.516Z,11.40
2023-01-02T12:18:15.401Z,11.40
2023-01-02T12:21:24.338Z,11.40
2023-01-02T12:24:52.248Z,11.30
2023-01-02T12:28:02.763Z,11.30
2023-01-02T12:31:21.487Z,11.30
2023-01-02T12:34:35.471Z,11.30
2023-01-02T12:37:48.904Z,11.20
2023-01-02T12:41:01.427Z,11.30
2023-01-02T12:44:22.087Z,11.30
2023-01-02T12:48:00.768Z,11.10
2023-01-02T12:51:13.971Z,11.10
2023-01-02T12:54:37.819Z,11.10
2023-01-02T12:57:49.585Z,11.10
2023-01-02T13:01:05.129Z,10.90
2023-01-02T13:04:15.312Z,10.90
2023-01-02T13:07:26.251Z,10.90
2023-01-02T13:10:31.252Z,10.90
2023-01-02T13:13:37.972Z,10.90
2023-01-02T13:16:42.948Z,10.80
2023-01-02T13:19:53.382Z,10.80
2023-01-02T13:23:05.612Z,10.70
2023-01-02T13:26:12.305Z,10.70
2023-01-02T13:29:27.081Z,10.70
2023-01-02T13:32:31.974Z,10.60
2023-01-02T13:35:39.271Z,10.60
2023-01-02T13:38:43.848Z,10.60
2023-01-02T13:42:10.552Z,10.60
2023-01-02T13:45:16.863Z,10.60
2023-01-02T13:48:26.811Z,10.50
2023-01-02T13:51:32.911Z,10.50
2023-01-02T13:54:37.674Z,10.50
2023-01-02T13:57:42.021Z,10.50
2023-01-02T14:00:51.611Z,10.50
2023-01-02T14:04:28.210Z,10.50
2023-01-02T14:07:48.720Z,10.50
2023-01-02T14:10:54.980Z,10.50
2023-01-02T14:13:59.847Z,10.40
2023-01-02T14:17:12.371Z,10.40
2023-01-02T14:20:23.995Z,10.40
2023-01-02T14:23:30.612Z,10.40
2023-01-02T14:26:36.990Z,10.40
2023-01-02T14:29:52.933Z,10.40
2023-01-02T14:32:59.541Z,10.40
2023-01-02T14:36:07.257Z,10.40
2023-01-02T14:39:19.164Z,10.40
2023-01-02T14:42:52.091Z,10.40
2023-01-02T14:45:59.761Z,10.30
2023-01-02T14:49:25.523Z,10.40
2023-01-02T14:52:33.161Z,10.30
2023-01-02T14:55:42.157Z,10.10
2023-01-02T14:58:47.900Z,10.00
2023-01-02T15:01:57.950Z,10.00
2023-01-02T15:05:07.069Z,9.90
2023-01-02T15:08:14.247Z,9.90
2023-01-02T15:11:37.516Z,9.90
2023-01-02T15:14:42.039Z,9.90
2023-01-02T15:17:48.513Z,9.80
2023-01-02T15:20:53.926Z,9.80
2023-01-02T15:24:00.003Z,9.90
2023-01-02T15:27:13.968Z,10.00
2023-01-02T15:30:29.936Z,10.00
2023-01-02T15:33:35.269Z,10.00
2023-01-02T15:36:41.179Z,10.00
2023-01-02T15:39:46.466Z,10.00
2023-01-02T15:43:07.519Z,10.00
2023-01-02T15:46:11.009Z,10.00
2023-01-02T15:49:16.014Z,10.00
2023-01-02T15:52:25.921Z,10.00
2023-01-02T15:55:32.226Z,10.00
2023-01-02T15:58:37.075Z,10.00
2023-01-02T16:01:45.881Z,10.00
2023-01-02T16:05:07.450Z,10.10
2023-01-02T16:08:19.302Z,10.10
2023-01-02T16:11:23.704Z,10.00
2023-01-02T16:14:34.588Z,10.00
2023-01-02T16:17:40.467Z,10.00
2023-01-02T16:20:49.038Z,10.00
2023-01-02T16:23:54.864Z,10.10
2023-01-02T16:26:58.942Z,10.10
2023-01-02T16:30:02.025Z,10.10
2023-01-02T16:33:06.847Z,10.20
2023-01-02T16:36:20.311Z,10.20
2023-01-02T16:39:42.013Z,10.20
2023-01-02T16:42:45.105Z,10.10
2023-01-02T16:45:50.224Z,10.10
2023-01-02T16:48:53.522Z,10.10
2023-01-02T16:51:57.896Z,10.10
2023-01-02T16:55:00.866Z,10.10
2023-01-02T16:58:03.854Z,10.10
2023-01-02T17:01:10.379Z,10.10
2023-01-02T17:04:14.557Z,10.10
2023-01-02T17:07:22.457Z,10.00
2023-01-02T17:10:26.200Z,10.10
2023-01-02T17:13:29.868Z,10.10
2023-01-02T17:16:32.929Z,10.00
2023-01-02T17:19:36.016Z,10.00
2023-01-02T17:22:41.048Z,10.00
2023-01-02T17:25:44.520Z,9.90
2023-01-02T17:28:47.573Z,9.90
2023-01-02T17:31:50.651Z,9.90
2023-01-02T17:34:53.664Z,9.80
2023-01-02T17:37:57.991Z,9.80
2023-01-02T17:41:00.940Z,9.80
2023-01-02T17:44:04.154Z,9.90
2023-01-02T17:50:32.200Z,9.90
2023-01-02T17:53:37.058Z,10.00
2023-01-02T17:56:40.091Z,10.00
2023-01-02T17:59:44.646Z,10.00
2023-01-02T18:02:47.697Z,10.00
2023-01-02T18:05:50.735Z,10.00
2023-01-02T18:08:55.644Z,9.90
2023-01-02T18:11:58.612Z,10.10
2023-01-02T18:15:04.145Z,10.00
2023-01-02T18:18:14.052Z,10.00
2023-01-02T18:21:20.339Z,10.00
2023-01-02T18:24:29.844Z,10.00
2023-01-02T18:27:35.300Z,10.00
2023-01-02T18:30:38.522Z,10.00
2023-01-02T18:33:41.835Z,10.00
2023-01-02T18:36:44.997Z,10.00
2023-01-02T18:39:49.685Z,10.00
2023-01-02T18:42:55.460Z,10.00
2023-01-02T18:46:01.625Z,10.00
2023-01-02T18:49:15.438Z,10.00
2023-01-02T18:52:26.079Z,10.00
2023-01-02T18:55:36.847Z,9.90
2023-01-02T18:58:44.658Z,9.90
2023-01-02T19:01:51.270Z,9.90
2023-01-02T19:04:56.089Z,9.90
2023-01-02T19:08:14.040Z,9.90
2023-01-02T19:11:39.476Z,9.90
2023-01-02T19:14:45.267Z,9.80
2023-01-02T19:17:48.259Z,9.80
2023-01-02T19:20:56.861Z,9.70
2023-01-02T19:24:01.228Z,9.80
2023-01-02T19:27:17.015Z,9.60
2023-01-02T19:30:29.740Z,9.50
2023-01-02T19:33:39.056Z,9.50
2023-01-02T19:36:42.969Z,9.40
2023-01-02T19:39:49.213Z,9.40
2023-01-02T19:42:55.182Z,9.40
2023-01-02T19:45:58.220Z,9.40
2023-01-02T19:49:01.293Z,9.40
2023-01-02T19:52:04.288Z,9.40
2023-01-02T19:55:08.956Z,9.40
2023-01-02T19:58:13.272Z,9.40
2023-01-02T20:01:16.411Z,9.40
2023-01-02T20:04:19.430Z,9.40
2023-01-02T20:07:23.684Z,9.30
2023-01-02T20:10:27.235Z,9.20
2023-01-02T20:13:31.546Z,9.10
2023-01-02T20:16:35.145Z,9.00
2023-01-02T20:19:39.105Z,9.00
2023-01-02T20:22:43.356Z,9.20
2023-01-02T20:25:47.056Z,9.10
2023-01-02T20:28:51.381Z,9.10
2023-01-02T20:31:54.716Z,9.00
2023-01-02T20:34:57.670Z,9.00
2023-01-02T20:38:00.637Z,9.10
2023-01-02T20:41:03.617Z,9.00
2023-01-02T20:44:08.896Z,9.00
2023-01-02T20:47:12.822Z,8.90
2023-01-02T20:50:15.850Z,8.90
2023-01-02T20:53:18.986Z,8.90
2023-01-02T20:56:21.999Z,8.80
2023-01-02T20:59:26.643Z,8.80
2023-01-02T21:02:29.893Z,8.80
2023-01-02T21:05:33.038Z,8.70
2023-01-02T21:08:36.672Z,8.70
2023-01-02T21:11:39.665Z,8.70
2023-01-02T21:14:44.258Z,8.80
2023-01-02T21:17:47.214Z,8.70
2023-01-02T21:20:52.909Z,8.70
2023-01-02T21:23:55.877Z,8.70
2023-01-02T21:26:58.843Z,8.70
2023-01-02T21:30:03.149Z,8.70
2023-01-02T21:33:06.725Z,8.80
2023-01-02T21:36:10.995Z,8.80
2023-01-02T21:39:14.017Z,8.80
2023-01-02T21:42:16.988Z,8.80
2023-01-02T21:45:21.555Z,8.80
2023-01-02T21:48:24.540Z,8.80
2023-01-02T21:51:32.482Z,8.80
2023-01-02T21:54:36.113Z,8.70
2023-01-02T21:58:11.732Z,8.50
2023-01-02T22:01:03.547Z,8.50
2023-01-02T22:04:06.802Z,8.30
2023-01-02T22:07:31.360Z,8.30
2023-01-02T22:10:32.872Z,8.10
2023-01-02T22:13:35.846Z,8.10
2023-01-02T22:16:40.182Z,7.90
2023-01-02T22:19:43.247Z,7.90
2023-01-02T22:22:46.257Z,7.90
2023-01-02T22:25:49.268Z,7.90
2023-01-02T22:28:52.273Z,7.80
2023-01-02T22:31:58.558Z,7.70
2023-01-02T22:35:03.459Z,7.70
2023-01-02T22:38:06.430Z,7.70
2023-01-02T22:41:09.977Z,7.60
2023-01-02T22:44:16.737Z,7.50
2023-01-02T22:47:27.561Z,7.50
2023-01-02T22:50:34.635Z,7.50
2023-01-02T22:53:40.076Z,7.50
2023-01-02T22:56:43.603Z,7.50
2023-01-02T22:59:46.663Z,7.40
2023-01-02T23:02:51.416Z,7.40
2023-01-02T23:05:54.413Z,7.40
2023-01-02T23:08:57.563Z,7.40
2023-01-02T23:12:00.562Z,7.30
2023-01-02T23:15:03.568Z,7.30
2023-01-02T23:18:25.487Z,7.20
2023-01-02T23:21:30.907Z,7.20
2023-01-02T23:24:38.251Z,7.20
2023-01-02T23:27:41.273Z,7.10
2023-01-02T23:30:44.307Z,7.20
2023-01-02T23:33:48.633Z,7.30
2023-01-02T23:36:52.292Z,7.40
2023-01-02T23:39:55.266Z,7.50
2023-01-02T23:42:58.222Z,7.50
2023-01-02T23:46:01.241Z,7.60
2023-01-02T23:49:05.992Z,7.70
2023-01-02T23:52:09.240Z,7.80
2023-01-02T23:55:12.266Z,7.70
2023-01-02T23:58:15.225Z,7.70
